Terminal Aerodrome Forecast
Issued by NWS Detroit/Pontiac, MI

Home | Current Version | Previous Version | Text Only | Print | Product List | Glossary On
Versions: 1 2 3 4 5 6 7 8 9 10 11 12 13 14 15 16 17 18 19 20 21 22 23 24 25
296
FTUS43 KDTX 241720
TAFDTW
TAF
KDTW 241720Z 2418/2524 20012G18KT P6SM BKN035
      TEMPO 2418/2422 6SM -SHRA
     FM242300 22010G20KT 3SM TSRA BKN020 OVC030CB
     FM250100 20010KT 5SM -SHRA BKN015 OVC040
     FM250300 20010KT 4SM BR BKN015 OVC040
     FM250900 24004KT 3SM BR SCT030
     FM251400 23005KT P6SM BKN025=

USA.gov is the U.S. government's official web portal to all federal, state and local government web resources and services.